Weather at Arvika Airfield

Public forecast

Using degrees Celsius for public forecast. Weather courtesy of forecast.io.

Closest aviation weather report (METAR) to Arvika Airfield

Closest report is Karlstad Airport, 25.4 nm (47.0 km) ESE.

2024/05/26 16:50 (retrieved 33 minutes ago)

ESOK 261650Z 13012KT CAVOK 24/10 Q1020

Closest aviation forecast (TAF) to Arvika Airfield

Closest forecast is Oslo Airport, Gardermoen, 55.8 nm (103.3 km) NW.

2024/05/26 12:24 Ammendment (retrieved 5 hours ago)

TAF AMD ENGM 261212Z 2612/2712 16008KT 9999 FEW040TCU TEMPO 2612/2712 SHRA SCT040CB PROB40 2614/2624 16015G28KT 4000 TSRA PROB30 2702/2708 BKN010